sensor_id;sensor_type;location;lat;lon;timestamp;P1;durP1;ratioP1;P2;durP2;ratioP2
53714;SDS011;39608;55.630;37.864;2023-09-07T00:00:14;3.65;;;0.77;;
53714;SDS011;39608;55.630;37.864;2023-09-07T00:05:17;9.35;;;0.90;;
53714;SDS011;39608;55.630;37.864;2023-09-07T00:10:20;1.15;;;0.40;;
53714;SDS011;39608;55.630;37.864;2023-09-07T00:15:23;0.45;;;0.35;;
53714;SDS011;39608;55.630;37.864;2023-09-07T00:20:27;0.40;;;0.40;;
53714;SDS011;39608;55.630;37.864;2023-09-07T00:25:30;0.30;;;0.30;;
53714;SDS011;39608;55.630;37.864;2023-09-07T00:30:32;2.63;;;0.40;;
53714;SDS011;39608;55.630;37.864;2023-09-07T00:35:34;3.83;;;0.65;;
53714;SDS011;39608;55.630;37.864;2023-09-07T00:40:38;1.05;;;0.35;;
53714;SDS011;39608;55.630;37.864;2023-09-07T00:45:44;0.57;;;0.40;;
53714;SDS011;39608;55.630;37.864;2023-09-07T00:50:46;3.70;;;0.43;;
53714;SDS011;39608;55.630;37.864;2023-09-07T00:55:50;1.25;;;0.30;;
53714;SDS011;39608;55.630;37.864;2023-09-07T01:00:52;1.30;;;0.20;;
53714;SDS011;39608;55.630;37.864;2023-09-07T01:05:56;0.57;;;0.40;;
53714;SDS011;39608;55.630;37.864;2023-09-07T01:11:13;0.52;;;0.50;;
53714;SDS011;39608;55.630;37.864;2023-09-07T01:16:16;1.27;;;0.30;;
53714;SDS011;39608;55.630;37.864;2023-09-07T01:21:18;0.30;;;0.30;;
53714;SDS011;39608;55.630;37.864;2023-09-07T01:26:22;0.75;;;0.40;;
53714;SDS011;39608;55.630;37.864;2023-09-07T01:31:24;1.00;;;0.45;;
53714;SDS011;39608;55.630;37.864;2023-09-07T01:36:26;0.93;;;0.47;;
53714;SDS011;39608;55.630;37.864;2023-09-07T01:41:30;1.27;;;0.47;;
53714;SDS011;39608;55.630;37.864;2023-09-07T01:46:33;6.57;;;0.50;;
53714;SDS011;39608;55.630;37.864;2023-09-07T01:51:36;1.38;;;0.43;;
53714;SDS011;39608;55.630;37.864;2023-09-07T01:56:39;2.40;;;0.60;;
53714;SDS011;39608;55.630;37.864;2023-09-07T02:01:42;2.47;;;0.35;;
53714;SDS011;39608;55.630;37.864;2023-09-07T02:06:44;1.63;;;0.60;;
53714;SDS011;39608;55.630;37.864;2023-09-07T02:11:48;1.75;;;0.95;;
53714;SDS011;39608;55.630;37.864;2023-09-07T02:16:50;0.80;;;0.60;;
53714;SDS011;39608;55.630;37.864;2023-09-07T02:21:52;4.25;;;0.50;;
53714;SDS011;39608;55.630;37.864;2023-09-07T02:26:58;4.22;;;1.40;;
53714;SDS011;39608;55.630;37.864;2023-09-07T02:32:00;1.52;;;0.70;;
53714;SDS011;39608;55.630;37.864;2023-09-07T02:37:02;1.63;;;0.50;;
53714;SDS011;39608;55.630;37.864;2023-09-07T02:42:06;1.40;;;0.40;;
53714;SDS011;39608;55.630;37.864;2023-09-07T02:47:09;4.28;;;0.32;;
53714;SDS011;39608;55.630;37.864;2023-09-07T02:52:14;0.55;;;0.45;;
53714;SDS011;39608;55.630;37.864;2023-09-07T02:57:17;0.82;;;0.40;;
53714;SDS011;39608;55.630;37.864;2023-09-07T03:02:19;8.10;;;0.45;;
53714;SDS011;39608;55.630;37.864;2023-09-07T03:07:21;0.85;;;0.43;;
53714;SDS011;39608;55.630;37.864;2023-09-07T03:12:28;0.52;;;0.30;;
53714;SDS011;39608;55.630;37.864;2023-09-07T03:17:30;2.63;;;0.70;;
53714;SDS011;39608;55.630;37.864;2023-09-07T03:22:32;1.75;;;0.65;;
53714;SDS011;39608;55.630;37.864;2023-09-07T03:27:36;2.25;;;0.30;;
53714;SDS011;39608;55.630;37.864;2023-09-07T03:32:38;1.42;;;0.47;;
53714;SDS011;39608;55.630;37.864;2023-09-07T03:37:41;4.90;;;0.50;;
53714;SDS011;39608;55.630;37.864;2023-09-07T03:42:45;2.22;;;0.70;;
53714;SDS011;39608;55.630;37.864;2023-09-07T03:47:47;3.03;;;1.23;;
53714;SDS011;39608;55.630;37.864;2023-09-07T03:52:49;1.67;;;0.63;;
53714;SDS011;39608;55.630;37.864;2023-09-07T03:57:53;6.07;;;0.90;;
53714;SDS011;39608;55.630;37.864;2023-09-07T04:02:55;2.47;;;0.52;;
53714;SDS011;39608;55.630;37.864;2023-09-07T04:07:57;4.72;;;0.70;;
53714;SDS011;39608;55.630;37.864;2023-09-07T04:13:02;4.50;;;1.25;;
53714;SDS011;39608;55.630;37.864;2023-09-07T04:18:04;1.20;;;0.70;;
53714;SDS011;39608;55.630;37.864;2023-09-07T04:23:06;4.45;;;1.30;;
53714;SDS011;39608;55.630;37.864;2023-09-07T04:28:11;1.52;;;1.05;;
53714;SDS011;39608;55.630;37.864;2023-09-07T04:33:13;1.23;;;0.85;;
53714;SDS011;39608;55.630;37.864;2023-09-07T04:38:15;1.45;;;0.60;;
53714;SDS011;39608;55.630;37.864;2023-09-07T04:43:18;7.68;;;1.13;;
53714;SDS011;39608;55.630;37.864;2023-09-07T04:48:20;7.53;;;0.50;;
53714;SDS011;39608;55.630;37.864;2023-09-07T04:53:26;0.55;;;0.47;;
53714;SDS011;39608;55.630;37.864;2023-09-07T04:58:30;7.43;;;0.95;;
53714;SDS011;39608;55.630;37.864;2023-09-07T05:03:33;1.63;;;0.82;;
53714;SDS011;39608;55.630;37.864;2023-09-07T05:08:35;4.05;;;0.50;;
53714;SDS011;39608;55.630;37.864;2023-09-07T05:13:39;0.50;;;0.38;;
53714;SDS011;39608;55.630;37.864;2023-09-07T05:18:41;1.60;;;0.65;;
53714;SDS011;39608;55.630;37.864;2023-09-07T05:23:44;0.30;;;0.30;;
53714;SDS011;39608;55.630;37.864;2023-09-07T05:28:47;1.13;;;0.80;;
53714;SDS011;39608;55.630;37.864;2023-09-07T05:33:49;2.03;;;0.70;;
53714;SDS011;39608;55.630;37.864;2023-09-07T05:38:52;7.60;;;0.70;;
53714;SDS011;39608;55.630;37.864;2023-09-07T05:43:55;1.10;;;0.55;;
53714;SDS011;39608;55.630;37.864;2023-09-07T05:48:58;3.67;;;0.80;;
53714;SDS011;39608;55.630;37.864;2023-09-07T05:54:02;2.67;;;0.77;;
53714;SDS011;39608;55.630;37.864;2023-09-07T05:59:07;6.53;;;0.93;;
53714;SDS011;39608;55.630;37.864;2023-09-07T06:04:09;2.58;;;0.93;;
53714;SDS011;39608;55.630;37.864;2023-09-07T06:09:12;5.93;;;1.38;;
53714;SDS011;39608;55.630;37.864;2023-09-07T06:14:15;3.03;;;1.85;;
53714;SDS011;39608;55.630;37.864;2023-09-07T06:19:18;7.88;;;1.65;;
53714;SDS011;39608;55.630;37.864;2023-09-07T06:24:20;6.88;;;1.00;;
53714;SDS011;39608;55.630;37.864;2023-09-07T06:29:26;4.45;;;1.10;;
53714;SDS011;39608;55.630;37.864;2023-09-07T06:34:29;4.67;;;1.30;;
53714;SDS011;39608;55.630;37.864;2023-09-07T06:39:31;10.10;;;1.23;;
53714;SDS011;39608;55.630;37.864;2023-09-07T06:44:36;9.93;;;0.90;;
53714;SDS011;39608;55.630;37.864;2023-09-07T06:49:47;3.25;;;1.10;;
53714;SDS011;39608;55.630;37.864;2023-09-07T07:00:33;2.80;;;0.88;;
53714;SDS011;39608;55.630;37.864;2023-09-07T07:05:39;4.20;;;0.80;;
53714;SDS011;39608;55.630;37.864;2023-09-07T07:10:50;0.77;;;0.60;;
53714;SDS011;39608;55.630;37.864;2023-09-07T07:15:54;0.65;;;0.60;;
53714;SDS011;39608;55.630;37.864;2023-09-07T07:20:57;2.50;;;0.63;;
53714;SDS011;39608;55.630;37.864;2023-09-07T07:25:59;3.80;;;0.60;;
53714;SDS011;39608;55.630;37.864;2023-09-07T07:31:08;1.05;;;0.50;;
53714;SDS011;39608;55.630;37.864;2023-09-07T07:36:10;2.05;;;0.35;;
53714;SDS011;39608;55.630;37.864;2023-09-07T07:41:12;2.67;;;0.82;;
53714;SDS011;39608;55.630;37.864;2023-09-07T07:46:23;4.75;;;0.68;;
53714;SDS011;39608;55.630;37.864;2023-09-07T07:51:25;3.40;;;0.50;;
53714;SDS011;39608;55.630;37.864;2023-09-07T07:56:27;0.85;;;0.40;;
53714;SDS011;39608;55.630;37.864;2023-09-07T08:01:33;6.10;;;0.82;;
53714;SDS011;39608;55.630;37.864;2023-09-07T08:06:36;14.98;;;0.90;;
53714;SDS011;39608;55.630;37.864;2023-09-07T08:11:39;3.67;;;1.02;;
53714;SDS011;39608;55.630;37.864;2023-09-07T08:16:42;1.23;;;0.50;;
53714;SDS011;39608;55.630;37.864;2023-09-07T08:21:47;4.25;;;0.85;;
53714;SDS011;39608;55.630;37.864;2023-09-07T08:26:52;1.70;;;0.88;;
53714;SDS011;39608;55.630;37.864;2023-09-07T08:32:01;6.70;;;1.10;;
53714;SDS011;39608;55.630;37.864;2023-09-07T08:37:04;5.85;;;0.98;;
53714;SDS011;39608;55.630;37.864;2023-09-07T08:42:11;9.18;;;0.80;;
53714;SDS011;39608;55.630;37.864;2023-09-07T08:47:19;7.20;;;1.10;;
53714;SDS011;39608;55.630;37.864;2023-09-07T08:52:27;7.55;;;1.17;;
53714;SDS011;39608;55.630;37.864;2023-09-07T08:57:30;4.87;;;1.00;;
53714;SDS011;39608;55.630;37.864;2023-09-07T09:02:34;2.00;;;0.77;;
53714;SDS011;39608;55.630;37.864;2023-09-07T09:07:37;6.30;;;0.73;;
53714;SDS011;39608;55.630;37.864;2023-09-07T09:12:48;11.55;;;1.45;;
53714;SDS011;39608;55.630;37.864;2023-09-07T09:18:11;7.95;;;1.08;;
53714;SDS011;39608;55.630;37.864;2023-09-07T09:23:30;4.80;;;0.65;;
53714;SDS011;39608;55.630;37.864;2023-09-07T09:28:34;8.50;;;0.70;;
53714;SDS011;39608;55.630;37.864;2023-09-07T09:33:47;14.05;;;1.10;;
53714;SDS011;39608;55.630;37.864;2023-09-07T09:38:51;17.88;;;1.30;;
53714;SDS011;39608;55.630;37.864;2023-09-07T09:43:54;5.35;;;0.50;;
53714;SDS011;39608;55.630;37.864;2023-09-07T09:49:01;2.40;;;0.80;;
53714;SDS011;39608;55.630;37.864;2023-09-07T09:54:06;3.60;;;0.73;;
53714;SDS011;39608;55.630;37.864;2023-09-07T09:59:10;6.28;;;0.85;;
53714;SDS011;39608;55.630;37.864;2023-09-07T10:04:15;7.47;;;1.05;;
53714;SDS011;39608;55.630;37.864;2023-09-07T10:09:32;6.97;;;0.70;;
53714;SDS011;39608;55.630;37.864;2023-09-07T10:14:40;3.60;;;0.68;;
53714;SDS011;39608;55.630;37.864;2023-09-07T10:20:04;4.15;;;0.52;;
53714;SDS011;39608;55.630;37.864;2023-09-07T10:25:26;4.15;;;0.60;;
53714;SDS011;39608;55.630;37.864;2023-09-07T10:30:59;8.60;;;0.73;;
53714;SDS011;39608;55.630;37.864;2023-09-07T10:36:20;3.10;;;0.75;;
53714;SDS011;39608;55.630;37.864;2023-09-07T10:41:23;7.75;;;0.73;;
53714;SDS011;39608;55.630;37.864;2023-09-07T10:46:25;1.75;;;0.63;;
53714;SDS011;39608;55.630;37.864;2023-09-07T10:51:29;4.13;;;0.75;;
53714;SDS011;39608;55.630;37.864;2023-09-07T10:56:31;1.83;;;0.47;;
53714;SDS011;39608;55.630;37.864;2023-09-07T11:01:33;7.03;;;1.05;;
53714;SDS011;39608;55.630;37.864;2023-09-07T11:06:37;6.68;;;0.73;;
53714;SDS011;39608;55.630;37.864;2023-09-07T11:11:46;0.90;;;0.50;;
53714;SDS011;39608;55.630;37.864;2023-09-07T11:16:48;2.53;;;0.60;;
53714;SDS011;39608;55.630;37.864;2023-09-07T11:21:54;6.43;;;0.60;;
53714;SDS011;39608;55.630;37.864;2023-09-07T11:27:00;2.33;;;0.80;;
53714;SDS011;39608;55.630;37.864;2023-09-07T11:32:06;1.55;;;0.47;;
53714;SDS011;39608;55.630;37.864;2023-09-07T11:37:10;1.67;;;0.70;;
53714;SDS011;39608;55.630;37.864;2023-09-07T11:42:12;0.80;;;0.70;;
53714;SDS011;39608;55.630;37.864;2023-09-07T11:47:14;6.75;;;0.80;;
53714;SDS011;39608;55.630;37.864;2023-09-07T11:52:18;2.75;;;0.60;;
53714;SDS011;39608;55.630;37.864;2023-09-07T11:57:20;3.60;;;0.80;;
53714;SDS011;39608;55.630;37.864;2023-09-07T12:02:22;6.65;;;0.65;;
53714;SDS011;39608;55.630;37.864;2023-09-07T12:07:49;2.25;;;0.73;;
53714;SDS011;39608;55.630;37.864;2023-09-07T12:18:50;4.32;;;0.90;;
53714;SDS011;39608;55.630;37.864;2023-09-07T12:23:53;5.22;;;0.90;;
53714;SDS011;39608;55.630;37.864;2023-09-07T12:28:55;4.75;;;1.20;;
53714;SDS011;39608;55.630;37.864;2023-09-07T12:33:57;5.95;;;1.20;;
53714;SDS011;39608;55.630;37.864;2023-09-07T12:39:01;3.45;;;0.90;;
53714;SDS011;39608;55.630;37.864;2023-09-07T12:44:05;5.80;;;0.80;;
53714;SDS011;39608;55.630;37.864;2023-09-07T12:49:08;6.18;;;1.30;;
53714;SDS011;39608;55.630;37.864;2023-09-07T12:54:11;6.60;;;1.40;;
53714;SDS011;39608;55.630;37.864;2023-09-07T12:59:13;2.65;;;0.85;;
53714;SDS011;39608;55.630;37.864;2023-09-07T13:04:15;8.15;;;1.20;;
53714;SDS011;39608;55.630;37.864;2023-09-07T13:09:19;4.80;;;0.70;;
53714;SDS011;39608;55.630;37.864;2023-09-07T13:14:23;1.25;;;0.68;;
53714;SDS011;39608;55.630;37.864;2023-09-07T13:19:37;5.25;;;1.02;;
53714;SDS011;39608;55.630;37.864;2023-09-07T13:25:00;4.32;;;0.75;;
53714;SDS011;39608;55.630;37.864;2023-09-07T13:30:04;1.33;;;0.90;;
53714;SDS011;39608;55.630;37.864;2023-09-07T13:35:08;6.78;;;1.00;;
53714;SDS011;39608;55.630;37.864;2023-09-07T13:40:12;5.22;;;1.20;;
53714;SDS011;39608;55.630;37.864;2023-09-07T13:45:15;9.87;;;1.10;;
53714;SDS011;39608;55.630;37.864;2023-09-07T13:50:17;5.32;;;1.10;;
53714;SDS011;39608;55.630;37.864;2023-09-07T13:55:21;3.05;;;1.00;;
53714;SDS011;39608;55.630;37.864;2023-09-07T14:00:23;5.07;;;1.00;;
53714;SDS011;39608;55.630;37.864;2023-09-07T14:05:26;6.88;;;1.00;;
53714;SDS011;39608;55.630;37.864;2023-09-07T14:10:30;9.55;;;1.42;;
53714;SDS011;39608;55.630;37.864;2023-09-07T14:15:32;6.50;;;0.95;;
53714;SDS011;39608;55.630;37.864;2023-09-07T14:20:34;7.55;;;1.10;;
53714;SDS011;39608;55.630;37.864;2023-09-07T14:25:38;12.43;;;1.00;;
53714;SDS011;39608;55.630;37.864;2023-09-07T14:30:42;8.75;;;1.23;;
53714;SDS011;39608;55.630;37.864;2023-09-07T14:35:44;6.10;;;1.05;;
53714;SDS011;39608;55.630;37.864;2023-09-07T14:40:50;5.80;;;1.10;;
53714;SDS011;39608;55.630;37.864;2023-09-07T14:45:55;4.22;;;1.15;;
53714;SDS011;39608;55.630;37.864;2023-09-07T14:50:58;4.97;;;1.00;;
53714;SDS011;39608;55.630;37.864;2023-09-07T14:56:02;6.70;;;1.50;;
53714;SDS011;39608;55.630;37.864;2023-09-07T15:01:05;10.38;;;1.42;;
53714;SDS011;39608;55.630;37.864;2023-09-07T15:06:07;4.40;;;1.27;;
53714;SDS011;39608;55.630;37.864;2023-09-07T15:11:13;3.85;;;1.15;;
53714;SDS011;39608;55.630;37.864;2023-09-07T15:16:15;5.57;;;1.38;;
53714;SDS011;39608;55.630;37.864;2023-09-07T15:21:17;3.35;;;1.75;;
53714;SDS011;39608;55.630;37.864;2023-09-07T15:26:21;5.13;;;1.77;;
53714;SDS011;39608;55.630;37.864;2023-09-07T15:31:23;7.30;;;1.98;;
53714;SDS011;39608;55.630;37.864;2023-09-07T15:36:25;7.85;;;1.20;;
53714;SDS011;39608;55.630;37.864;2023-09-07T15:41:32;4.18;;;0.98;;
53714;SDS011;39608;55.630;37.864;2023-09-07T15:46:38;11.05;;;0.70;;
53714;SDS011;39608;55.630;37.864;2023-09-07T15:51:40;1.75;;;0.73;;
53714;SDS011;39608;55.630;37.864;2023-09-07T15:56:43;3.95;;;1.02;;
53714;SDS011;39608;55.630;37.864;2023-09-07T16:01:47;4.20;;;0.82;;
53714;SDS011;39608;55.630;37.864;2023-09-07T16:06:49;4.75;;;1.38;;
53714;SDS011;39608;55.630;37.864;2023-09-07T16:11:53;7.68;;;0.77;;
53714;SDS011;39608;55.630;37.864;2023-09-07T16:16:55;3.38;;;0.70;;
53714;SDS011;39608;55.630;37.864;2023-09-07T16:21:59;13.13;;;0.90;;
53714;SDS011;39608;55.630;37.864;2023-09-07T16:27:07;9.55;;;0.95;;
53714;SDS011;39608;55.630;37.864;2023-09-07T16:32:09;2.70;;;0.82;;
53714;SDS011;39608;55.630;37.864;2023-09-07T16:37:12;4.13;;;0.70;;
53714;SDS011;39608;55.630;37.864;2023-09-07T16:42:16;0.57;;;0.45;;
53714;SDS011;39608;55.630;37.864;2023-09-07T16:47:22;2.50;;;1.17;;
53714;SDS011;39608;55.630;37.864;2023-09-07T16:52:29;10.10;;;1.17;;
53714;SDS011;39608;55.630;37.864;2023-09-07T16:57:39;6.15;;;1.35;;
53714;SDS011;39608;55.630;37.864;2023-09-07T17:02:41;1.95;;;0.77;;
53714;SDS011;39608;55.630;37.864;2023-09-07T17:07:46;14.68;;;1.42;;
53714;SDS011;39608;55.630;37.864;2023-09-07T17:12:51;6.30;;;0.90;;
53714;SDS011;39608;55.630;37.864;2023-09-07T17:17:54;4.95;;;1.05;;
53714;SDS011;39608;55.630;37.864;2023-09-07T17:22:56;2.03;;;0.60;;
53714;SDS011;39608;55.630;37.864;2023-09-07T17:27:59;2.95;;;1.42;;
53714;SDS011;39608;55.630;37.864;2023-09-07T17:33:04;7.17;;;2.67;;
53714;SDS011;39608;55.630;37.864;2023-09-07T17:38:06;7.68;;;2.20;;
53714;SDS011;39608;55.630;37.864;2023-09-07T17:43:10;5.90;;;1.90;;
53714;SDS011;39608;55.630;37.864;2023-09-07T17:48:12;7.65;;;1.33;;
53714;SDS011;39608;55.630;37.864;2023-09-07T17:53:17;1.75;;;1.02;;
53714;SDS011;39608;55.630;37.864;2023-09-07T17:58:21;2.92;;;1.23;;
53714;SDS011;39608;55.630;37.864;2023-09-07T18:03:23;2.50;;;1.30;;
53714;SDS011;39608;55.630;37.864;2023-09-07T18:08:25;4.68;;;1.00;;
53714;SDS011;39608;55.630;37.864;2023-09-07T18:13:32;1.52;;;0.80;;
53714;SDS011;39608;55.630;37.864;2023-09-07T18:18:34;1.25;;;1.10;;
53714;SDS011;39608;55.630;37.864;2023-09-07T18:23:37;1.10;;;0.68;;
53714;SDS011;39608;55.630;37.864;2023-09-07T18:28:49;4.30;;;0.80;;
53714;SDS011;39608;55.630;37.864;2023-09-07T18:33:51;3.33;;;1.10;;
53714;SDS011;39608;55.630;37.864;2023-09-07T18:38:53;0.75;;;0.70;;
53714;SDS011;39608;55.630;37.864;2023-09-07T18:43:57;1.73;;;1.05;;
53714;SDS011;39608;55.630;37.864;2023-09-07T18:48:59;2.67;;;0.95;;
53714;SDS011;39608;55.630;37.864;2023-09-07T18:54:02;0.75;;;0.73;;
53714;SDS011;39608;55.630;37.864;2023-09-07T18:59:06;1.70;;;1.00;;
53714;SDS011;39608;55.630;37.864;2023-09-07T19:04:10;8.77;;;1.52;;
53714;SDS011;39608;55.630;37.864;2023-09-07T19:09:19;1.92;;;1.40;;
53714;SDS011;39608;55.630;37.864;2023-09-07T19:14:23;9.00;;;1.80;;
53714;SDS011;39608;55.630;37.864;2023-09-07T19:19:25;3.80;;;1.02;;
53714;SDS011;39608;55.630;37.864;2023-09-07T19:24:28;1.77;;;1.27;;
53714;SDS011;39608;55.630;37.864;2023-09-07T19:29:36;5.88;;;1.58;;
53714;SDS011;39608;55.630;37.864;2023-09-07T19:34:38;9.20;;;0.95;;
53714;SDS011;39608;55.630;37.864;2023-09-07T19:39:40;3.33;;;1.30;;
53714;SDS011;39608;55.630;37.864;2023-09-07T19:44:45;6.30;;;1.13;;
53714;SDS011;39608;55.630;37.864;2023-09-07T19:49:47;6.57;;;1.95;;
53714;SDS011;39608;55.630;37.864;2023-09-07T19:54:49;2.05;;;0.98;;
53714;SDS011;39608;55.630;37.864;2023-09-07T19:59:53;2.67;;;0.70;;
53714;SDS011;39608;55.630;37.864;2023-09-07T20:04:55;1.88;;;0.75;;
53714;SDS011;39608;55.630;37.864;2023-09-07T20:09:57;6.80;;;0.90;;
53714;SDS011;39608;55.630;37.864;2023-09-07T20:15:01;2.92;;;0.85;;
53714;SDS011;39608;55.630;37.864;2023-09-07T20:20:05;0.85;;;0.60;;
53714;SDS011;39608;55.630;37.864;2023-09-07T20:25:12;2.30;;;0.80;;
53714;SDS011;39608;55.630;37.864;2023-09-07T20:30:16;1.17;;;0.60;;
53714;SDS011;39608;55.630;37.864;2023-09-07T20:35:19;5.97;;;1.13;;
53714;SDS011;39608;55.630;37.864;2023-09-07T20:40:23;0.77;;;0.60;;
53714;SDS011;39608;55.630;37.864;2023-09-07T20:45:30;0.73;;;0.52;;
53714;SDS011;39608;55.630;37.864;2023-09-07T20:50:32;2.28;;;0.80;;
53714;SDS011;39608;55.630;37.864;2023-09-07T20:55:34;1.05;;;0.50;;
53714;SDS011;39608;55.630;37.864;2023-09-07T21:00:43;1.05;;;0.50;;
53714;SDS011;39608;55.630;37.864;2023-09-07T21:05:45;2.15;;;0.57;;
53714;SDS011;39608;55.630;37.864;2023-09-07T21:10:50;1.58;;;0.90;;
53714;SDS011;39608;55.630;37.864;2023-09-07T21:15:53;0.60;;;0.60;;
53714;SDS011;39608;55.630;37.864;2023-09-07T21:20:56;1.30;;;0.80;;
53714;SDS011;39608;55.630;37.864;2023-09-07T21:25:58;1.27;;;0.70;;
53714;SDS011;39608;55.630;37.864;2023-09-07T21:31:02;2.85;;;0.65;;
53714;SDS011;39608;55.630;37.864;2023-09-07T21:36:04;6.72;;;0.70;;
53714;SDS011;39608;55.630;37.864;2023-09-07T21:41:07;0.30;;;0.30;;
53714;SDS011;39608;55.630;37.864;2023-09-07T21:46:10;3.20;;;0.73;;
53714;SDS011;39608;55.630;37.864;2023-09-07T21:51:12;0.70;;;0.60;;
53714;SDS011;39608;55.630;37.864;2023-09-07T21:56:14;3.95;;;0.60;;
53714;SDS011;39608;55.630;37.864;2023-09-07T22:01:18;1.08;;;0.60;;
53714;SDS011;39608;55.630;37.864;2023-09-07T22:06:21;0.32;;;0.32;;
53714;SDS011;39608;55.630;37.864;2023-09-07T22:11:24;1.55;;;0.80;;
53714;SDS011;39608;55.630;37.864;2023-09-07T22:16:28;0.98;;;0.80;;
53714;SDS011;39608;55.630;37.864;2023-09-07T22:21:30;2.58;;;0.73;;
53714;SDS011;39608;55.630;37.864;2023-09-07T22:26:38;3.92;;;0.82;;
53714;SDS011;39608;55.630;37.864;2023-09-07T22:31:41;0.60;;;0.60;;
53714;SDS011;39608;55.630;37.864;2023-09-07T22:36:44;0.95;;;0.60;;
53714;SDS011;39608;55.630;37.864;2023-09-07T22:41:46;0.60;;;0.60;;
53714;SDS011;39608;55.630;37.864;2023-09-07T22:46:50;0.77;;;0.68;;
53714;SDS011;39608;55.630;37.864;2023-09-07T22:51:52;1.33;;;0.90;;
53714;SDS011;39608;55.630;37.864;2023-09-07T22:56:54;0.95;;;0.82;;
53714;SDS011;39608;55.630;37.864;2023-09-07T23:01:58;1.20;;;0.90;;
53714;SDS011;39608;55.630;37.864;2023-09-07T23:07:00;2.42;;;0.75;;
53714;SDS011;39608;55.630;37.864;2023-09-07T23:12:02;6.03;;;0.93;;
53714;SDS011;39608;55.630;37.864;2023-09-07T23:17:06;0.85;;;0.60;;
53714;SDS011;39608;55.630;37.864;2023-09-07T23:22:08;0.70;;;0.70;;
53714;SDS011;39608;55.630;37.864;2023-09-07T23:27:11;5.72;;;1.08;;
53714;SDS011;39608;55.630;37.864;2023-09-07T23:32:15;1.83;;;1.00;;
53714;SDS011;39608;55.630;37.864;2023-09-07T23:37:17;0.73;;;0.65;;
53714;SDS011;39608;55.630;37.864;2023-09-07T23:42:19;2.08;;;0.90;;
53714;SDS011;39608;55.630;37.864;2023-09-07T23:47:41;1.20;;;0.73;;
53714;SDS011;39608;55.630;37.864;2023-09-07T23:52:43;1.65;;;0.90;;
53714;SDS011;39608;55.630;37.864;2023-09-07T23:57:45;2.63;;;1.00;;
